sensor_id;sensor_type;location;lat;lon;timestamp;P1;durP1;ratioP1;P2;durP2;ratioP2
14209;SDS011;7188;56.070;12.698;2024-01-27T00:00:24;40.43;;;6.50;;
14209;SDS011;7188;56.070;12.698;2024-01-27T00:06:21;43.20;;;8.83;;
14209;SDS011;7188;56.070;12.698;2024-01-27T00:15:18;37.20;;;7.33;;
14209;SDS011;7188;56.070;12.698;2024-01-27T00:27:08;44.60;;;7.20;;
14209;SDS011;7188;56.070;12.698;2024-01-27T00:32:57;40.27;;;7.13;;
14209;SDS011;7188;56.070;12.698;2024-01-27T00:41:24;43.40;;;8.00;;
14209;SDS011;7188;56.070;12.698;2024-01-27T00:43:50;33.87;;;6.83;;
14209;SDS011;7188;56.070;12.698;2024-01-27T00:46:16;48.47;;;8.60;;
14209;SDS011;7188;56.070;12.698;2024-01-27T00:48:41;46.63;;;8.83;;
14209;SDS011;7188;56.070;12.698;2024-01-27T00:51:07;48.20;;;7.43;;
14209;SDS011;7188;56.070;12.698;2024-01-27T00:53:38;48.00;;;8.37;;
14209;SDS011;7188;56.070;12.698;2024-01-27T00:58:58;50.07;;;7.70;;
14209;SDS011;7188;56.070;12.698;2024-01-27T01:08:11;45.90;;;7.93;;
14209;SDS011;7188;56.070;12.698;2024-01-27T01:13:43;42.17;;;7.27;;
14209;SDS011;7188;56.070;12.698;2024-01-27T01:16:09;41.47;;;8.33;;
14209;SDS011;7188;56.070;12.698;2024-01-27T01:18:48;40.90;;;7.93;;
14209;SDS011;7188;56.070;12.698;2024-01-27T01:24:23;48.30;;;9.93;;
14209;SDS011;7188;56.070;12.698;2024-01-27T01:26:48;52.17;;;8.40;;
14209;SDS011;7188;56.070;12.698;2024-01-27T01:29:14;40.10;;;8.47;;
14209;SDS011;7188;56.070;12.698;2024-01-27T01:31:46;47.70;;;8.47;;
14209;SDS011;7188;56.070;12.698;2024-01-27T01:34:18;49.67;;;8.03;;
14209;SDS011;7188;56.070;12.698;2024-01-27T01:36:45;47.30;;;7.40;;
14209;SDS011;7188;56.070;12.698;2024-01-27T01:39:15;60.40;;;8.53;;
14209;SDS011;7188;56.070;12.698;2024-01-27T01:41:41;50.47;;;7.97;;
14209;SDS011;7188;56.070;12.698;2024-01-27T01:47:03;44.33;;;7.93;;
14209;SDS011;7188;56.070;12.698;2024-01-27T01:49:29;41.37;;;7.97;;
14209;SDS011;7188;56.070;12.698;2024-01-27T01:51:55;40.23;;;7.63;;
14209;SDS011;7188;56.070;12.698;2024-01-27T01:54:33;31.80;;;6.43;;
14209;SDS011;7188;56.070;12.698;2024-01-27T01:56:59;44.43;;;6.70;;
14209;SDS011;7188;56.070;12.698;2024-01-27T02:02:32;60.03;;;7.77;;
14209;SDS011;7188;56.070;12.698;2024-01-27T02:05:13;49.67;;;8.37;;
14209;SDS011;7188;56.070;12.698;2024-01-27T02:07:40;38.40;;;7.33;;
14209;SDS011;7188;56.070;12.698;2024-01-27T02:10:16;31.50;;;6.10;;
14209;SDS011;7188;56.070;12.698;2024-01-27T02:15:52;48.80;;;6.83;;
14209;SDS011;7188;56.070;12.698;2024-01-27T02:21:10;41.93;;;6.63;;
14209;SDS011;7188;56.070;12.698;2024-01-27T02:32:39;44.80;;;8.33;;
14209;SDS011;7188;56.070;12.698;2024-01-27T02:41:49;52.73;;;9.27;;
14209;SDS011;7188;56.070;12.698;2024-01-27T02:44:15;46.50;;;7.67;;
14209;SDS011;7188;56.070;12.698;2024-01-27T02:49:25;45.50;;;7.80;;
14209;SDS011;7188;56.070;12.698;2024-01-27T02:51:50;54.47;;;8.23;;
14209;SDS011;7188;56.070;12.698;2024-01-27T02:54:16;47.00;;;8.17;;
14209;SDS011;7188;56.070;12.698;2024-01-27T03:00:04;43.13;;;6.87;;
14209;SDS011;7188;56.070;12.698;2024-01-27T03:08:21;44.73;;;9.27;;
14209;SDS011;7188;56.070;12.698;2024-01-27T03:10:47;39.57;;;7.20;;
14209;SDS011;7188;56.070;12.698;2024-01-27T03:13:12;45.03;;;8.50;;
14209;SDS011;7188;56.070;12.698;2024-01-27T03:15:38;42.80;;;6.73;;
14209;SDS011;7188;56.070;12.698;2024-01-27T03:21:26;50.23;;;8.83;;
14209;SDS011;7188;56.070;12.698;2024-01-27T03:24:01;50.53;;;7.97;;
14209;SDS011;7188;56.070;12.698;2024-01-27T03:26:27;38.27;;;7.03;;
14209;SDS011;7188;56.070;12.698;2024-01-27T03:32:15;36.57;;;7.60;;
14209;SDS011;7188;56.070;12.698;2024-01-27T03:38:03;40.57;;;5.77;;
14209;SDS011;7188;56.070;12.698;2024-01-27T03:40:29;39.77;;;6.40;;
14209;SDS011;7188;56.070;12.698;2024-01-27T03:43:10;45.83;;;5.83;;
14209;SDS011;7188;56.070;12.698;2024-01-27T03:48:32;33.60;;;7.20;;
14209;SDS011;7188;56.070;12.698;2024-01-27T04:01:18;43.90;;;6.37;;
14209;SDS011;7188;56.070;12.698;2024-01-27T04:03:44;41.03;;;7.03;;
14209;SDS011;7188;56.070;12.698;2024-01-27T04:06:18;43.10;;;6.57;;
14209;SDS011;7188;56.070;12.698;2024-01-27T04:08:47;33.03;;;6.53;;
14209;SDS011;7188;56.070;12.698;2024-01-27T04:14:35;47.47;;;8.03;;
14209;SDS011;7188;56.070;12.698;2024-01-27T04:29:42;45.23;;;6.23;;
14209;SDS011;7188;56.070;12.698;2024-01-27T04:35:15;48.70;;;7.17;;
14209;SDS011;7188;56.070;12.698;2024-01-27T04:37:41;50.23;;;8.73;;
14209;SDS011;7188;56.070;12.698;2024-01-27T04:40:07;35.47;;;7.50;;
14209;SDS011;7188;56.070;12.698;2024-01-27T04:49:17;57.87;;;7.97;;
14209;SDS011;7188;56.070;12.698;2024-01-27T04:51:43;56.30;;;8.33;;
14209;SDS011;7188;56.070;12.698;2024-01-27T04:54:09;47.53;;;7.77;;
14209;SDS011;7188;56.070;12.698;2024-01-27T04:56:46;54.27;;;7.53;;
14209;SDS011;7188;56.070;12.698;2024-01-27T04:59:13;56.47;;;7.10;;
14209;SDS011;7188;56.070;12.698;2024-01-27T05:01:39;56.23;;;8.07;;
14209;SDS011;7188;56.070;12.698;2024-01-27T05:04:25;49.20;;;6.80;;
14209;SDS011;7188;56.070;12.698;2024-01-27T05:07:07;40.80;;;6.30;;
14209;SDS011;7188;56.070;12.698;2024-01-27T05:12:53;47.83;;;7.90;;
14209;SDS011;7188;56.070;12.698;2024-01-27T05:15:21;51.77;;;8.63;;
14209;SDS011;7188;56.070;12.698;2024-01-27T05:27:22;43.33;;;7.73;;
14209;SDS011;7188;56.070;12.698;2024-01-27T05:29:48;66.57;;;9.43;;
14209;SDS011;7188;56.070;12.698;2024-01-27T05:38:49;45.40;;;6.80;;
14209;SDS011;7188;56.070;12.698;2024-01-27T05:41:30;49.40;;;7.63;;
14209;SDS011;7188;56.070;12.698;2024-01-27T05:43:56;44.00;;;8.67;;
14209;SDS011;7188;56.070;12.698;2024-01-27T05:59:35;55.40;;;7.87;;
14209;SDS011;7188;56.070;12.698;2024-01-27T06:02:20;47.23;;;7.47;;
14209;SDS011;7188;56.070;12.698;2024-01-27T06:05:02;47.73;;;6.53;;
14209;SDS011;7188;56.070;12.698;2024-01-27T06:17:38;59.57;;;9.53;;
14209;SDS011;7188;56.070;12.698;2024-01-27T06:20:07;53.03;;;8.30;;
14209;SDS011;7188;56.070;12.698;2024-01-27T06:25:55;55.10;;;8.17;;
14209;SDS011;7188;56.070;12.698;2024-01-27T06:28:21;39.73;;;7.37;;
14209;SDS011;7188;56.070;12.698;2024-01-27T06:30:47;47.40;;;7.23;;
14209;SDS011;7188;56.070;12.698;2024-01-27T06:33:13;40.30;;;7.53;;
14209;SDS011;7188;56.070;12.698;2024-01-27T06:35:39;59.47;;;9.10;;
14209;SDS011;7188;56.070;12.698;2024-01-27T06:38:04;53.00;;;8.97;;
14209;SDS011;7188;56.070;12.698;2024-01-27T06:40:30;55.43;;;7.80;;
14209;SDS011;7188;56.070;12.698;2024-01-27T06:42:56;51.53;;;7.70;;
14209;SDS011;7188;56.070;12.698;2024-01-27T06:45:22;43.90;;;7.03;;
14209;SDS011;7188;56.070;12.698;2024-01-27T06:47:47;59.90;;;8.43;;
14209;SDS011;7188;56.070;12.698;2024-01-27T06:50:13;49.43;;;7.13;;
14209;SDS011;7188;56.070;12.698;2024-01-27T06:52:40;48.37;;;8.97;;
14209;SDS011;7188;56.070;12.698;2024-01-27T06:55:06;50.93;;;7.33;;
14209;SDS011;7188;56.070;12.698;2024-01-27T06:57:32;51.80;;;7.47;;
14209;SDS011;7188;56.070;12.698;2024-01-27T06:59:58;54.70;;;7.77;;
14209;SDS011;7188;56.070;12.698;2024-01-27T07:02:26;50.90;;;6.60;;
14209;SDS011;7188;56.070;12.698;2024-01-27T07:04:53;51.70;;;7.60;;
14209;SDS011;7188;56.070;12.698;2024-01-27T07:07:26;40.20;;;6.83;;
14209;SDS011;7188;56.070;12.698;2024-01-27T07:09:56;42.00;;;6.40;;
14209;SDS011;7188;56.070;12.698;2024-01-27T07:12:22;40.93;;;6.77;;
14209;SDS011;7188;56.070;12.698;2024-01-27T07:14:48;39.77;;;7.20;;
14209;SDS011;7188;56.070;12.698;2024-01-27T07:17:14;49.50;;;7.97;;
14209;SDS011;7188;56.070;12.698;2024-01-27T07:19:39;44.23;;;8.10;;
14209;SDS011;7188;56.070;12.698;2024-01-27T07:22:05;51.10;;;8.27;;
14209;SDS011;7188;56.070;12.698;2024-01-27T07:24:31;31.80;;;6.07;;
14209;SDS011;7188;56.070;12.698;2024-01-27T07:26:57;38.17;;;6.30;;
14209;SDS011;7188;56.070;12.698;2024-01-27T07:29:24;51.43;;;7.93;;
14209;SDS011;7188;56.070;12.698;2024-01-27T07:31:50;41.27;;;6.43;;
14209;SDS011;7188;56.070;12.698;2024-01-27T07:34:16;56.57;;;7.90;;
14209;SDS011;7188;56.070;12.698;2024-01-27T07:36:43;53.93;;;7.03;;
14209;SDS011;7188;56.070;12.698;2024-01-27T07:39:09;48.03;;;7.30;;
14209;SDS011;7188;56.070;12.698;2024-01-27T07:41:35;50.73;;;7.47;;
14209;SDS011;7188;56.070;12.698;2024-01-27T07:44:10;51.17;;;7.73;;
14209;SDS011;7188;56.070;12.698;2024-01-27T07:46:40;44.03;;;7.20;;
14209;SDS011;7188;56.070;12.698;2024-01-27T07:49:07;45.50;;;7.37;;
14209;SDS011;7188;56.070;12.698;2024-01-27T07:51:33;48.43;;;6.90;;
14209;SDS011;7188;56.070;12.698;2024-01-27T07:53:59;43.83;;;6.23;;
14209;SDS011;7188;56.070;12.698;2024-01-27T07:56:26;41.97;;;7.63;;
14209;SDS011;7188;56.070;12.698;2024-01-27T07:58:52;47.30;;;6.70;;
14209;SDS011;7188;56.070;12.698;2024-01-27T08:01:18;39.33;;;6.13;;
14209;SDS011;7188;56.070;12.698;2024-01-27T08:03:44;33.47;;;6.03;;
14209;SDS011;7188;56.070;12.698;2024-01-27T08:06:14;34.03;;;6.03;;
14209;SDS011;7188;56.070;12.698;2024-01-27T08:08:50;37.00;;;6.73;;
14209;SDS011;7188;56.070;12.698;2024-01-27T08:11:17;46.30;;;6.73;;
14209;SDS011;7188;56.070;12.698;2024-01-27T08:13:42;38.63;;;6.60;;
14209;SDS011;7188;56.070;12.698;2024-01-27T08:16:09;38.50;;;6.90;;
14209;SDS011;7188;56.070;12.698;2024-01-27T08:18:37;33.13;;;6.20;;
14209;SDS011;7188;56.070;12.698;2024-01-27T08:21:08;36.23;;;6.00;;
14209;SDS011;7188;56.070;12.698;2024-01-27T08:23:35;33.20;;;6.00;;
14209;SDS011;7188;56.070;12.698;2024-01-27T08:26:00;33.17;;;6.40;;
14209;SDS011;7188;56.070;12.698;2024-01-27T08:28:26;40.70;;;6.70;;
14209;SDS011;7188;56.070;12.698;2024-01-27T08:30:52;37.83;;;5.40;;
14209;SDS011;7188;56.070;12.698;2024-01-27T08:33:18;39.57;;;7.37;;
14209;SDS011;7188;56.070;12.698;2024-01-27T08:35:45;44.50;;;6.23;;
14209;SDS011;7188;56.070;12.698;2024-01-27T08:38:13;39.27;;;6.13;;
14209;SDS011;7188;56.070;12.698;2024-01-27T08:40:38;36.07;;;6.07;;
14209;SDS011;7188;56.070;12.698;2024-01-27T08:43:04;33.23;;;6.23;;
14209;SDS011;7188;56.070;12.698;2024-01-27T08:45:31;42.47;;;5.20;;
14209;SDS011;7188;56.070;12.698;2024-01-27T08:47:57;29.30;;;5.03;;
14209;SDS011;7188;56.070;12.698;2024-01-27T08:50:23;39.00;;;6.10;;
14209;SDS011;7188;56.070;12.698;2024-01-27T08:52:49;42.07;;;6.23;;
14209;SDS011;7188;56.070;12.698;2024-01-27T08:55:15;37.87;;;6.17;;
14209;SDS011;7188;56.070;12.698;2024-01-27T08:57:44;44.77;;;6.47;;
14209;SDS011;7188;56.070;12.698;2024-01-27T09:00:11;32.80;;;5.80;;
14209;SDS011;7188;56.070;12.698;2024-01-27T09:02:38;39.40;;;5.37;;
14209;SDS011;7188;56.070;12.698;2024-01-27T09:05:04;44.07;;;6.43;;
14209;SDS011;7188;56.070;12.698;2024-01-27T09:07:30;40.10;;;5.70;;
14209;SDS011;7188;56.070;12.698;2024-01-27T09:09:56;28.23;;;4.97;;
14209;SDS011;7188;56.070;12.698;2024-01-27T09:12:22;32.20;;;6.20;;
14209;SDS011;7188;56.070;12.698;2024-01-27T09:14:47;30.47;;;5.20;;
14209;SDS011;7188;56.070;12.698;2024-01-27T09:17:13;30.60;;;5.00;;
14209;SDS011;7188;56.070;12.698;2024-01-27T09:19:39;33.30;;;5.63;;
14209;SDS011;7188;56.070;12.698;2024-01-27T09:22:05;27.03;;;4.33;;
14209;SDS011;7188;56.070;12.698;2024-01-27T09:24:31;34.43;;;5.80;;
14209;SDS011;7188;56.070;12.698;2024-01-27T09:26:57;32.50;;;4.93;;
14209;SDS011;7188;56.070;12.698;2024-01-27T09:29:23;32.10;;;4.83;;
14209;SDS011;7188;56.070;12.698;2024-01-27T09:31:48;34.67;;;5.40;;
14209;SDS011;7188;56.070;12.698;2024-01-27T09:34:14;28.87;;;5.07;;
14209;SDS011;7188;56.070;12.698;2024-01-27T09:36:40;35.03;;;4.90;;
14209;SDS011;7188;56.070;12.698;2024-01-27T09:39:06;23.30;;;4.87;;
14209;SDS011;7188;56.070;12.698;2024-01-27T09:41:32;32.47;;;4.50;;
14209;SDS011;7188;56.070;12.698;2024-01-27T09:44:01;37.47;;;5.47;;
14209;SDS011;7188;56.070;12.698;2024-01-27T09:46:28;26.00;;;4.13;;
14209;SDS011;7188;56.070;12.698;2024-01-27T09:48:55;20.80;;;4.13;;
14209;SDS011;7188;56.070;12.698;2024-01-27T09:51:21;25.90;;;4.27;;
14209;SDS011;7188;56.070;12.698;2024-01-27T09:53:48;36.43;;;5.60;;
14209;SDS011;7188;56.070;12.698;2024-01-27T09:56:16;28.47;;;4.83;;
14209;SDS011;7188;56.070;12.698;2024-01-27T09:58:44;29.07;;;5.40;;
14209;SDS011;7188;56.070;12.698;2024-01-27T10:01:10;21.97;;;4.50;;
14209;SDS011;7188;56.070;12.698;2024-01-27T10:03:38;26.20;;;4.90;;
14209;SDS011;7188;56.070;12.698;2024-01-27T10:06:09;35.47;;;4.67;;
14209;SDS011;7188;56.070;12.698;2024-01-27T10:08:35;27.30;;;3.87;;
14209;SDS011;7188;56.070;12.698;2024-01-27T10:11:09;26.87;;;4.37;;
14209;SDS011;7188;56.070;12.698;2024-01-27T10:13:35;28.00;;;4.77;;
14209;SDS011;7188;56.070;12.698;2024-01-27T10:16:05;33.43;;;4.53;;
14209;SDS011;7188;56.070;12.698;2024-01-27T10:18:32;30.07;;;5.30;;
14209;SDS011;7188;56.070;12.698;2024-01-27T10:20:59;25.53;;;4.30;;
14209;SDS011;7188;56.070;12.698;2024-01-27T10:23:25;25.57;;;3.77;;
14209;SDS011;7188;56.070;12.698;2024-01-27T10:25:51;21.53;;;3.73;;
14209;SDS011;7188;56.070;12.698;2024-01-27T10:28:17;23.23;;;3.63;;
14209;SDS011;7188;56.070;12.698;2024-01-27T10:30:43;28.67;;;2.90;;
14209;SDS011;7188;56.070;12.698;2024-01-27T10:33:10;25.17;;;4.07;;
14209;SDS011;7188;56.070;12.698;2024-01-27T10:35:38;17.70;;;4.50;;
14209;SDS011;7188;56.070;12.698;2024-01-27T10:38:10;24.47;;;3.60;;
14209;SDS011;7188;56.070;12.698;2024-01-27T10:40:36;18.37;;;4.73;;
14209;SDS011;7188;56.070;12.698;2024-01-27T10:43:06;22.37;;;4.33;;
14209;SDS011;7188;56.070;12.698;2024-01-27T10:48:08;24.67;;;4.77;;
14209;SDS011;7188;56.070;12.698;2024-01-27T10:50:38;21.17;;;4.00;;
14209;SDS011;7188;56.070;12.698;2024-01-27T10:53:05;21.10;;;3.87;;
14209;SDS011;7188;56.070;12.698;2024-01-27T10:55:57;23.67;;;4.10;;
14209;SDS011;7188;56.070;12.698;2024-01-27T10:58:23;13.77;;;3.33;;
14209;SDS011;7188;56.070;12.698;2024-01-27T11:00:53;20.17;;;3.70;;
14209;SDS011;7188;56.070;12.698;2024-01-27T11:03:21;24.17;;;3.57;;
14209;SDS011;7188;56.070;12.698;2024-01-27T11:05:49;24.30;;;3.93;;
14209;SDS011;7188;56.070;12.698;2024-01-27T11:08:16;23.17;;;3.13;;
14209;SDS011;7188;56.070;12.698;2024-01-27T11:10:43;21.07;;;2.93;;
14209;SDS011;7188;56.070;12.698;2024-01-27T11:13:09;14.57;;;3.40;;
14209;SDS011;7188;56.070;12.698;2024-01-27T11:15:36;19.93;;;3.20;;
14209;SDS011;7188;56.070;12.698;2024-01-27T11:18:02;18.90;;;2.93;;
14209;SDS011;7188;56.070;12.698;2024-01-27T11:20:33;20.23;;;3.60;;
14209;SDS011;7188;56.070;12.698;2024-01-27T11:23:12;20.90;;;3.23;;
14209;SDS011;7188;56.070;12.698;2024-01-27T11:25:41;22.57;;;3.67;;
14209;SDS011;7188;56.070;12.698;2024-01-27T11:28:17;25.20;;;4.03;;
14209;SDS011;7188;56.070;12.698;2024-01-27T11:30:58;18.90;;;4.07;;
14209;SDS011;7188;56.070;12.698;2024-01-27T11:33:28;20.60;;;2.93;;
14209;SDS011;7188;56.070;12.698;2024-01-27T11:36:03;26.57;;;4.43;;
14209;SDS011;7188;56.070;12.698;2024-01-27T11:38:32;21.07;;;3.30;;
14209;SDS011;7188;56.070;12.698;2024-01-27T11:41:01;18.80;;;3.27;;
14209;SDS011;7188;56.070;12.698;2024-01-27T11:43:28;24.53;;;4.33;;
14209;SDS011;7188;56.070;12.698;2024-01-27T11:45:57;14.90;;;2.93;;
14209;SDS011;7188;56.070;12.698;2024-01-27T11:48:24;26.60;;;3.90;;
14209;SDS011;7188;56.070;12.698;2024-01-27T11:51:01;19.67;;;3.10;;
14209;SDS011;7188;56.070;12.698;2024-01-27T11:53:30;21.90;;;3.70;;
14209;SDS011;7188;56.070;12.698;2024-01-27T11:55:56;20.57;;;3.43;;
14209;SDS011;7188;56.070;12.698;2024-01-27T11:58:24;20.77;;;3.70;;
14209;SDS011;7188;56.070;12.698;2024-01-27T12:00:49;17.93;;;3.80;;
14209;SDS011;7188;56.070;12.698;2024-01-27T12:03:15;22.80;;;3.67;;
14209;SDS011;7188;56.070;12.698;2024-01-27T12:05:41;25.47;;;3.80;;
14209;SDS011;7188;56.070;12.698;2024-01-27T12:08:08;16.47;;;3.40;;
14209;SDS011;7188;56.070;12.698;2024-01-27T12:10:34;24.00;;;4.67;;
14209;SDS011;7188;56.070;12.698;2024-01-27T12:13:00;24.30;;;4.73;;
14209;SDS011;7188;56.070;12.698;2024-01-27T12:15:26;18.43;;;3.50;;
14209;SDS011;7188;56.070;12.698;2024-01-27T12:17:52;20.13;;;3.53;;
14209;SDS011;7188;56.070;12.698;2024-01-27T12:20:18;23.50;;;3.90;;
14209;SDS011;7188;56.070;12.698;2024-01-27T12:22:44;24.50;;;4.17;;
14209;SDS011;7188;56.070;12.698;2024-01-27T12:25:10;21.33;;;3.83;;
14209;SDS011;7188;56.070;12.698;2024-01-27T12:27:41;18.90;;;3.27;;
14209;SDS011;7188;56.070;12.698;2024-01-27T12:30:07;23.47;;;3.40;;
14209;SDS011;7188;56.070;12.698;2024-01-27T12:32:35;25.27;;;3.43;;
14209;SDS011;7188;56.070;12.698;2024-01-27T12:35:04;20.00;;;3.70;;
14209;SDS011;7188;56.070;12.698;2024-01-27T12:37:31;18.33;;;3.30;;
14209;SDS011;7188;56.070;12.698;2024-01-27T12:39:57;21.37;;;3.60;;
14209;SDS011;7188;56.070;12.698;2024-01-27T12:42:22;20.10;;;3.43;;
14209;SDS011;7188;56.070;12.698;2024-01-27T12:44:48;20.30;;;3.70;;
14209;SDS011;7188;56.070;12.698;2024-01-27T12:47:14;18.67;;;2.70;;
14209;SDS011;7188;56.070;12.698;2024-01-27T12:49:40;21.37;;;2.97;;
14209;SDS011;7188;56.070;12.698;2024-01-27T12:52:06;16.53;;;2.73;;
14209;SDS011;7188;56.070;12.698;2024-01-27T12:54:32;19.03;;;3.03;;
14209;SDS011;7188;56.070;12.698;2024-01-27T12:56:58;13.77;;;2.73;;
14209;SDS011;7188;56.070;12.698;2024-01-27T12:59:26;15.33;;;2.93;;
14209;SDS011;7188;56.070;12.698;2024-01-27T13:01:52;15.13;;;2.23;;
14209;SDS011;7188;56.070;12.698;2024-01-27T13:04:18;19.27;;;3.80;;
14209;SDS011;7188;56.070;12.698;2024-01-27T13:06:43;11.83;;;2.07;;
14209;SDS011;7188;56.070;12.698;2024-01-27T13:09:10;14.73;;;2.50;;
14209;SDS011;7188;56.070;12.698;2024-01-27T13:11:38;15.53;;;2.37;;
14209;SDS011;7188;56.070;12.698;2024-01-27T13:14:04;15.20;;;2.50;;
14209;SDS011;7188;56.070;12.698;2024-01-27T13:16:31;20.73;;;3.07;;
14209;SDS011;7188;56.070;12.698;2024-01-27T13:18:57;12.10;;;2.77;;
14209;SDS011;7188;56.070;12.698;2024-01-27T13:21:23;16.20;;;2.87;;
14209;SDS011;7188;56.070;12.698;2024-01-27T13:23:49;17.83;;;2.10;;
14209;SDS011;7188;56.070;12.698;2024-01-27T13:26:17;15.27;;;2.50;;
14209;SDS011;7188;56.070;12.698;2024-01-27T13:28:43;13.07;;;2.60;;
14209;SDS011;7188;56.070;12.698;2024-01-27T13:31:09;14.67;;;3.13;;
14209;SDS011;7188;56.070;12.698;2024-01-27T13:36:34;16.83;;;3.17;;
14209;SDS011;7188;56.070;12.698;2024-01-27T13:39:06;12.00;;;2.27;;
14209;SDS011;7188;56.070;12.698;2024-01-27T13:41:32;11.47;;;2.17;;
14209;SDS011;7188;56.070;12.698;2024-01-27T13:43:58;15.97;;;2.77;;
14209;SDS011;7188;56.070;12.698;2024-01-27T13:46:23;17.57;;;3.43;;
14209;SDS011;7188;56.070;12.698;2024-01-27T13:48:49;13.27;;;2.70;;
14209;SDS011;7188;56.070;12.698;2024-01-27T13:51:16;21.80;;;3.23;;
14209;SDS011;7188;56.070;12.698;2024-01-27T13:56:42;19.43;;;2.97;;
14209;SDS011;7188;56.070;12.698;2024-01-27T13:59:08;29.83;;;3.60;;
14209;SDS011;7188;56.070;12.698;2024-01-27T14:01:34;16.47;;;4.13;;
14209;SDS011;7188;56.070;12.698;2024-01-27T14:04:00;22.67;;;2.87;;
14209;SDS011;7188;56.070;12.698;2024-01-27T14:06:25;20.40;;;3.63;;
14209;SDS011;7188;56.070;12.698;2024-01-27T14:08:51;24.30;;;3.40;;
14209;SDS011;7188;56.070;12.698;2024-01-27T14:11:17;22.53;;;4.03;;
14209;SDS011;7188;56.070;12.698;2024-01-27T14:13:43;15.30;;;2.50;;
14209;SDS011;7188;56.070;12.698;2024-01-27T14:16:09;27.93;;;3.30;;
14209;SDS011;7188;56.070;12.698;2024-01-27T14:18:35;25.83;;;4.03;;
14209;SDS011;7188;56.070;12.698;2024-01-27T14:21:01;24.83;;;3.00;;
14209;SDS011;7188;56.070;12.698;2024-01-27T14:23:26;26.03;;;4.77;;
14209;SDS011;7188;56.070;12.698;2024-01-27T14:25:53;18.63;;;3.37;;
14209;SDS011;7188;56.070;12.698;2024-01-27T14:28:19;23.93;;;4.13;;
14209;SDS011;7188;56.070;12.698;2024-01-27T14:30:46;28.93;;;4.37;;
14209;SDS011;7188;56.070;12.698;2024-01-27T14:33:12;32.37;;;5.53;;
14209;SDS011;7188;56.070;12.698;2024-01-27T14:35:38;24.77;;;4.80;;
14209;SDS011;7188;56.070;12.698;2024-01-27T14:38:04;21.17;;;4.20;;
14209;SDS011;7188;56.070;12.698;2024-01-27T14:40:33;30.23;;;4.40;;
14209;SDS011;7188;56.070;12.698;2024-01-27T14:42:59;23.17;;;4.03;;
14209;SDS011;7188;56.070;12.698;2024-01-27T14:45:25;17.10;;;3.80;;
14209;SDS011;7188;56.070;12.698;2024-01-27T14:47:51;23.27;;;4.40;;
14209;SDS011;7188;56.070;12.698;2024-01-27T14:50:17;25.20;;;3.97;;
14209;SDS011;7188;56.070;12.698;2024-01-27T14:52:42;19.57;;;4.07;;
14209;SDS011;7188;56.070;12.698;2024-01-27T14:55:08;18.87;;;3.90;;
14209;SDS011;7188;56.070;12.698;2024-01-27T14:57:36;24.07;;;4.27;;
14209;SDS011;7188;56.070;12.698;2024-01-27T15:00:02;22.53;;;4.43;;
14209;SDS011;7188;56.070;12.698;2024-01-27T15:02:28;29.80;;;3.87;;
14209;SDS011;7188;56.070;12.698;2024-01-27T15:04:54;18.13;;;3.47;;
14209;SDS011;7188;56.070;12.698;2024-01-27T15:07:20;21.87;;;4.30;;
14209;SDS011;7188;56.070;12.698;2024-01-27T15:09:46;21.23;;;3.70;;
14209;SDS011;7188;56.070;12.698;2024-01-27T15:12:11;21.00;;;4.30;;
14209;SDS011;7188;56.070;12.698;2024-01-27T15:14:37;24.47;;;4.20;;
14209;SDS011;7188;56.070;12.698;2024-01-27T15:17:03;25.63;;;4.13;;
14209;SDS011;7188;56.070;12.698;2024-01-27T15:19:29;17.40;;;3.30;;
14209;SDS011;7188;56.070;12.698;2024-01-27T15:21:54;20.27;;;3.27;;
14209;SDS011;7188;56.070;12.698;2024-01-27T15:24:20;20.70;;;3.90;;
14209;SDS011;7188;56.070;12.698;2024-01-27T15:26:46;18.90;;;5.30;;
14209;SDS011;7188;56.070;12.698;2024-01-27T15:29:12;23.97;;;3.50;;
14209;SDS011;7188;56.070;12.698;2024-01-27T15:31:37;22.30;;;4.23;;
14209;SDS011;7188;56.070;12.698;2024-01-27T15:34:03;21.93;;;3.53;;
14209;SDS011;7188;56.070;12.698;2024-01-27T15:36:31;18.03;;;2.93;;
14209;SDS011;7188;56.070;12.698;2024-01-27T15:38:57;19.40;;;3.43;;
14209;SDS011;7188;56.070;12.698;2024-01-27T15:41:23;16.23;;;3.30;;
14209;SDS011;7188;56.070;12.698;2024-01-27T15:43:48;16.50;;;3.77;;
14209;SDS011;7188;56.070;12.698;2024-01-27T15:46:14;19.83;;;3.67;;
14209;SDS011;7188;56.070;12.698;2024-01-27T15:48:40;16.07;;;2.90;;
14209;SDS011;7188;56.070;12.698;2024-01-27T15:51:06;21.43;;;3.53;;
14209;SDS011;7188;56.070;12.698;2024-01-27T15:53:32;25.83;;;3.97;;
14209;SDS011;7188;56.070;12.698;2024-01-27T15:55:58;18.03;;;3.60;;
14209;SDS011;7188;56.070;12.698;2024-01-27T15:58:25;23.30;;;4.20;;
14209;SDS011;7188;56.070;12.698;2024-01-27T16:00:51;16.43;;;2.83;;
14209;SDS011;7188;56.070;12.698;2024-01-27T16:03:16;19.50;;;4.03;;
14209;SDS011;7188;56.070;12.698;2024-01-27T16:05:42;21.23;;;4.00;;
14209;SDS011;7188;56.070;12.698;2024-01-27T16:08:08;19.13;;;3.63;;
14209;SDS011;7188;56.070;12.698;2024-01-27T16:10:35;21.47;;;4.40;;
14209;SDS011;7188;56.070;12.698;2024-01-27T16:13:02;16.73;;;4.00;;
14209;SDS011;7188;56.070;12.698;2024-01-27T16:15:28;19.33;;;4.07;;
14209;SDS011;7188;56.070;12.698;2024-01-27T16:17:54;23.60;;;5.33;;
14209;SDS011;7188;56.070;12.698;2024-01-27T16:20:20;22.53;;;4.97;;
14209;SDS011;7188;56.070;12.698;2024-01-27T16:22:45;29.13;;;4.23;;
14209;SDS011;7188;56.070;12.698;2024-01-27T16:25:11;20.10;;;5.00;;
14209;SDS011;7188;56.070;12.698;2024-01-27T16:27:37;20.63;;;4.73;;
14209;SDS011;7188;56.070;12.698;2024-01-27T16:30:02;19.50;;;3.93;;
14209;SDS011;7188;56.070;12.698;2024-01-27T16:32:29;20.13;;;4.07;;
14209;SDS011;7188;56.070;12.698;2024-01-27T16:34:54;23.53;;;4.10;;
14209;SDS011;7188;56.070;12.698;2024-01-27T16:37:21;18.73;;;3.70;;
14209;SDS011;7188;56.070;12.698;2024-01-27T16:39:47;18.57;;;3.90;;
14209;SDS011;7188;56.070;12.698;2024-01-27T16:42:12;18.23;;;4.00;;
14209;SDS011;7188;56.070;12.698;2024-01-27T16:44:38;25.17;;;4.27;;
14209;SDS011;7188;56.070;12.698;2024-01-27T16:47:04;23.67;;;4.27;;
14209;SDS011;7188;56.070;12.698;2024-01-27T16:49:32;21.50;;;3.13;;
14209;SDS011;7188;56.070;12.698;2024-01-27T16:51:57;16.50;;;3.80;;
14209;SDS011;7188;56.070;12.698;2024-01-27T16:54:23;16.83;;;4.40;;
14209;SDS011;7188;56.070;12.698;2024-01-27T16:56:50;19.93;;;4.37;;
14209;SDS011;7188;56.070;12.698;2024-01-27T16:59:17;24.50;;;4.80;;
14209;SDS011;7188;56.070;12.698;2024-01-27T17:01:43;24.47;;;4.70;;
14209;SDS011;7188;56.070;12.698;2024-01-27T17:04:09;23.00;;;5.27;;
14209;SDS011;7188;56.070;12.698;2024-01-27T17:06:39;15.57;;;5.00;;
14209;SDS011;7188;56.070;12.698;2024-01-27T17:09:06;20.80;;;4.67;;
14209;SDS011;7188;56.070;12.698;2024-01-27T17:11:32;14.63;;;3.70;;
14209;SDS011;7188;56.070;12.698;2024-01-27T17:13:58;20.90;;;4.53;;
14209;SDS011;7188;56.070;12.698;2024-01-27T17:16:24;21.43;;;4.53;;
14209;SDS011;7188;56.070;12.698;2024-01-27T17:18:51;26.93;;;4.87;;
14209;SDS011;7188;56.070;12.698;2024-01-27T17:21:17;17.13;;;4.77;;
14209;SDS011;7188;56.070;12.698;2024-01-27T17:23:46;21.27;;;5.17;;
14209;SDS011;7188;56.070;12.698;2024-01-27T17:26:11;22.90;;;4.13;;
14209;SDS011;7188;56.070;12.698;2024-01-27T17:28:39;20.17;;;4.50;;
14209;SDS011;7188;56.070;12.698;2024-01-27T17:34:15;22.57;;;3.60;;
14209;SDS011;7188;56.070;12.698;2024-01-27T17:36:42;18.13;;;4.30;;
14209;SDS011;7188;56.070;12.698;2024-01-27T17:39:08;25.40;;;4.37;;
14209;SDS011;7188;56.070;12.698;2024-01-27T17:41:34;25.03;;;4.83;;
14209;SDS011;7188;56.070;12.698;2024-01-27T17:43:59;22.33;;;4.47;;